Time;durP1;ratioP1;P1;durP2;ratioP2;P2;SDS_P1;SDS_P2;PMS_P1;PMS_P2;Temp;Humidity;BMP_temperature;BMP_pressure;BME280_temperature;BME280_humidity;BME280_pressure;Samples;Min_cycle;Max_cycle;Signal;HPM_P1;HPM_P2
2023/03/04 00:01:49;;;;;;;27.58;16.27;;;21.50;64.10;;;;;;5033630;28;20473;-71
2023/03/04 00:04:16;;;;;;;25.63;15.35;;;21.50;63.90;;;;;;5028972;28;20041;-72
2023/03/04 00:06:42;;;;;;;27.60;15.15;;;21.50;64.00;;;;;;5031412;28;20052;-71
2023/03/04 00:09:08;;;;;;;31.08;16.95;;;21.40;64.00;;;;;;5033314;28;20045;-71
2023/03/04 00:11:34;;;;;;;23.90;15.30;;;21.40;64.00;;;;;;5033278;28;20041;-71
2023/03/04 00:14:00;;;;;;;25.65;15.40;;;21.40;64.10;;;;;;5033410;28;20038;-73
2023/03/04 00:16:27;;;;;;;30.33;15.23;;;21.40;64.20;;;;;;5032600;28;20485;-71
2023/03/04 00:18:56;;;;;;;25.42;15.18;;;21.40;64.10;;;;;;5029288;28;20211;-71
2023/03/04 00:21:23;;;;;;;29.75;15.68;;;21.20;64.00;;;;;;5013533;28;20184;-71
2023/03/04 00:23:49;;;;;;;28.35;16.17;;;21.30;64.10;;;;;;5013222;28;20037;-72
2023/03/04 00:26:16;;;;;;;26.42;15.85;;;21.30;64.00;;;;;;5026190;28;20045;-72
2023/03/04 00:28:43;;;;;;;28.13;16.23;;;21.40;64.00;;;;;;5033161;28;20034;-72
2023/03/04 00:31:09;;;;;;;28.65;16.15;;;21.40;63.70;;;;;;5032929;28;20477;-71
2023/03/04 00:33:36;;;;;;;31.08;15.27;;;21.40;63.70;;;;;;5032922;28;20124;-71
2023/03/04 00:36:03;;;;;;;30.48;16.52;;;21.40;63.60;;;;;;5032525;28;20451;-71
2023/03/04 00:38:29;;;;;;;35.95;16.27;;;21.30;63.50;;;;;;5031498;28;20095;-71
2023/03/04 00:40:56;;;;;;;26.60;15.23;;;21.40;63.40;;;;;;5032942;28;20033;-72
2023/03/04 00:43:22;;;;;;;28.65;16.67;;;21.40;63.30;;;;;;5032661;28;20489;-71
2023/03/04 00:45:48;;;;;;;28.02;16.08;;;21.20;63.10;;;;;;5023208;28;20053;-72
2023/03/04 00:48:15;;;;;;;28.92;14.77;;;21.30;63.30;;;;;;5028196;28;20037;-72
2023/03/04 00:50:42;;;;;;;29.77;14.90;;;21.20;63.10;;;;;;5011792;28;20052;-71
2023/03/04 00:53:08;;;;;;;24.98;14.38;;;21.10;63.10;;;;;;5011463;28;20132;-71
2023/03/04 00:55:34;;;;;;;30.38;15.50;;;21.20;63.00;;;;;;5031279;28;20034;-72
2023/03/04 00:58:00;;;;;;;27.13;16.33;;;21.20;63.20;;;;;;5044837;28;20044;-71
2023/03/04 01:00:26;;;;;;;26.02;15.07;;;21.10;63.30;;;;;;5012865;28;20061;-71
2023/03/04 01:02:52;;;;;;;24.63;14.77;;;21.00;62.90;;;;;;5025939;28;20465;-72
2023/03/04 01:05:18;;;;;;;30.27;15.70;;;21.00;62.90;;;;;;5026836;28;20050;-72
2023/03/04 01:07:44;;;;;;;27.70;15.85;;;21.00;63.10;;;;;;5027653;28;20091;-72
2023/03/04 01:10:13;;;;;;;29.42;15.30;;;21.10;63.00;;;;;;5024994;28;20459;-72
2023/03/04 01:12:41;;;;;;;29.65;16.33;;;21.00;62.80;;;;;;5032503;28;20117;-72
2023/03/04 01:15:10;;;;;;;27.90;15.43;;;20.90;62.90;;;;;;5031228;28;20064;-71
2023/03/04 01:17:36;;;;;;;26.10;16.02;;;20.90;62.80;;;;;;5011853;28;20109;-71
2023/03/04 01:20:03;;;;;;;26.35;14.77;;;20.90;62.80;;;;;;5012354;28;20112;-71
2023/03/04 01:22:29;;;;;;;32.35;15.85;;;20.80;62.60;;;;;;5010966;28;20041;-72
2023/03/04 01:24:55;;;;;;;26.35;15.65;;;20.90;62.80;;;;;;5011122;28;20029;-71
2023/03/04 01:27:21;;;;;;;26.58;15.68;;;20.80;62.60;;;;;;5012069;28;20084;-71
2023/03/04 01:29:48;;;;;;;30.23;16.20;;;20.80;62.50;;;;;;5012331;28;20026;-71
2023/03/04 01:32:14;;;;;;;29.27;16.42;;;20.90;62.50;;;;;;5027332;28;20034;-72
2023/03/04 01:34:41;;;;;;;27.67;15.98;;;20.70;62.30;;;;;;5012167;28;20034;-71
2023/03/04 01:37:08;;;;;;;27.15;15.52;;;20.80;62.20;;;;;;5012499;28;20469;-72
2023/03/04 01:39:34;;;;;;;28.40;15.98;;;20.80;62.30;;;;;;5012967;28;20390;-72
2023/03/04 01:42:00;;;;;;;31.40;17.20;;;20.80;62.40;;;;;;5030382;28;20048;-72
2023/03/04 01:44:26;;;;;;;29.40;15.55;;;20.80;62.30;;;;;;5031232;28;20029;-72
2023/03/04 01:46:54;;;;;;;27.75;15.55;;;20.80;62.20;;;;;;5030665;28;20053;-72
2023/03/04 01:49:21;;;;;;;26.95;15.27;;;20.90;62.10;;;;;;5030148;28;20037;-71
2023/03/04 01:51:53;;;;;;;28.00;15.02;;;20.90;62.00;;;;;;5031756;28;20112;-71
2023/03/04 01:54:20;;;;;;;27.17;16.05;;;20.80;61.70;;;;;;5031407;28;20029;-72
2023/03/04 01:56:49;;;;;;;25.95;15.13;;;20.80;61.60;;;;;;5015886;28;20108;-71
2023/03/04 01:59:16;;;;;;;28.20;15.07;;;20.90;61.60;;;;;;5026734;28;20485;-72
2023/03/04 02:01:54;;;;;;;28.05;15.00;;;21.00;61.50;;;;;;5011560;28;20116;-71
2023/03/04 02:04:23;;;;;;;27.40;15.20;;;20.90;61.40;;;;;;5011377;28;20417;-72
2023/03/04 02:06:50;;;;;;;31.60;15.68;;;21.00;61.20;;;;;;5010709;28;20041;-72
2023/03/04 02:09:18;;;;;;;27.83;14.35;;;20.90;61.20;;;;;;5026458;28;20030;-71
2023/03/04 02:11:45;;;;;;;26.52;15.57;;;21.00;61.10;;;;;;5010230;28;20042;-72
2023/03/04 02:14:12;;;;;;;28.05;15.25;;;21.00;61.00;;;;;;5009860;28;20034;-72
2023/03/04 02:16:38;;;;;;;20.20;13.07;;;21.00;61.00;;;;;;5011511;28;20466;-72
2023/03/04 02:19:18;;;;;;;31.23;15.68;;;21.00;60.90;;;;;;5010115;28;20030;-72
2023/03/04 02:21:44;;;;;;;26.77;15.02;;;21.00;60.90;;;;;;5011422;28;20033;-72
2023/03/04 02:24:46;;;;;;;27.83;15.60;;;21.10;60.90;;;;;;4990193;28;20045;-72
2023/03/04 02:27:12;;;;;;;22.80;14.93;;;21.10;60.80;;;;;;5002651;28;20065;-72
2023/03/04 02:29:39;;;;;;;24.83;15.10;;;21.20;60.80;;;;;;5003632;28;20041;-72
2023/03/04 02:32:05;;;;;;;26.88;14.77;;;21.10;60.60;;;;;;5007240;28;20057;-72
2023/03/04 02:34:35;;;;;;;26.63;15.52;;;21.10;60.50;;;;;;4992108;28;20046;-72
2023/03/04 02:37:02;;;;;;;28.48;15.48;;;21.20;60.60;;;;;;5008556;28;20478;-72
2023/03/04 02:39:40;;;;;;;27.35;14.68;;;21.10;60.40;;;;;;5008548;28;20137;-71
2023/03/04 02:42:07;;;;;;;29.13;15.73;;;21.00;60.20;;;;;;5007908;28;20548;-72
2023/03/04 02:44:40;;;;;;;22.02;14.60;;;21.10;60.40;;;;;;4991736;28;20038;-72
2023/03/04 02:47:09;;;;;;;26.80;15.10;;;21.10;60.10;;;;;;5008628;28;20050;-72
2023/03/04 02:49:37;;;;;;;25.50;14.38;;;21.10;60.00;;;;;;5008823;28;20038;-72
2023/03/04 02:52:11;;;;;;;31.92;16.00;;;21.30;60.10;;;;;;5008024;28;20555;-72
2023/03/04 02:54:37;;;;;;;26.17;14.68;;;21.10;59.90;;;;;;5008252;28;20030;-72
2023/03/04 02:57:08;;;;;;;32.67;15.93;;;21.20;59.90;;;;;;5008525;28;20120;-71
2023/03/04 02:59:37;;;;;;;30.58;15.25;;;21.00;59.70;;;;;;5008639;28;20084;-71
2023/03/04 03:02:05;;;;;;;25.92;14.73;;;21.10;59.70;;;;;;5007747;28;20073;-71
2023/03/04 03:04:34;;;;;;;27.17;14.50;;;21.10;59.70;;;;;;5012851;28;20050;-71
2023/03/04 03:07:00;;;;;;;28.45;14.27;;;21.20;59.70;;;;;;4996917;28;20089;-71
2023/03/04 03:09:26;;;;;;;24.88;14.07;;;21.10;59.80;;;;;;5028109;28;20058;-72
2023/03/04 03:11:52;;;;;;;24.75;14.48;;;21.10;59.70;;;;;;5028186;28;20041;-72
2023/03/04 03:14:19;;;;;;;25.23;14.40;;;21.00;59.60;;;;;;5027294;28;20041;-72
2023/03/04 03:16:45;;;;;;;26.95;14.45;;;21.10;59.70;;;;;;5028429;28;20115;-72
2023/03/04 03:19:11;;;;;;;25.70;14.02;;;21.10;59.60;;;;;;5011461;28;20118;-71
2023/03/04 03:21:37;;;;;;;23.25;13.57;;;21.00;59.40;;;;;;5000413;28;20061;-72
2023/03/04 03:24:03;;;;;;;28.17;14.80;;;21.10;59.50;;;;;;4995672;28;20113;-71
2023/03/04 03:26:30;;;;;;;26.90;15.32;;;21.10;59.40;;;;;;4995262;28;20210;-72
2023/03/04 03:28:56;;;;;;;27.23;16.17;;;21.00;59.30;;;;;;4995264;28;20124;-72
2023/03/04 03:31:22;;;;;;;30.35;16.92;;;21.20;59.30;;;;;;4995403;28;20509;-71
2023/03/04 03:33:48;;;;;;;28.73;17.08;;;21.20;59.10;;;;;;5013757;28;20050;-72
2023/03/04 03:36:14;;;;;;;30.55;17.75;;;21.10;59.10;;;;;;5013065;28;20121;-72
2023/03/04 03:38:40;;;;;;;29.70;18.25;;;21.00;58.90;;;;;;5014438;28;20030;-72
2023/03/04 03:41:06;;;;;;;35.63;18.75;;;21.20;58.90;;;;;;5029338;28;20474;-72
2023/03/04 03:43:33;;;;;;;30.17;18.58;;;21.00;59.00;;;;;;5014275;28;20084;-72
2023/03/04 03:45:59;;;;;;;25.90;15.60;;;21.10;59.10;;;;;;5013969;28;20056;-72
2023/03/04 03:48:24;;;;;;;28.17;15.68;;;20.90;59.00;;;;;;5023551;28;20369;-72
2023/03/04 03:50:50;;;;;;;29.17;15.45;;;20.80;59.00;;;;;;5033011;28;20458;-72
2023/03/04 03:53:16;;;;;;;27.40;14.02;;;20.80;59.10;;;;;;5033826;28;20036;-72
2023/03/04 03:55:42;;;;;;;29.40;15.50;;;21.00;59.60;;;;;;5033572;28;20060;-72
2023/03/04 03:58:08;;;;;;;26.48;14.15;;;20.80;59.10;;;;;;5033671;28;20045;-72
2023/03/04 04:00:34;;;;;;;26.17;14.93;;;20.70;59.00;;;;;;5019102;28;20029;-72
2023/03/04 04:03:00;;;;;;;21.25;14.23;;;20.80;59.00;;;;;;5013760;28;20038;-71
2023/03/04 04:05:26;;;;;;;26.90;14.68;;;20.90;58.80;;;;;;5012519;28;20128;-72
2023/03/04 04:07:53;;;;;;;25.73;14.27;;;20.80;58.50;;;;;;5013839;28;20040;-71
2023/03/04 04:10:20;;;;;;;26.70;14.52;;;20.90;58.60;;;;;;5015191;28;20148;-72
2023/03/04 04:12:46;;;;;;;27.40;15.90;;;20.90;58.70;;;;;;5012570;28;20040;-72
2023/03/04 04:15:12;;;;;;;27.35;15.57;;;20.90;58.40;;;;;;5013487;28;20484;-72
2023/03/04 04:17:38;;;;;;;22.77;14.40;;;21.00;58.40;;;;;;5013795;28;20034;-71
2023/03/04 04:20:06;;;;;;;29.52;14.85;;;20.80;58.20;;;;;;5013789;28;20064;-72
2023/03/04 04:22:32;;;;;;;29.15;15.05;;;20.90;58.30;;;;;;5044180;28;20505;-72
2023/03/04 04:24:58;;;;;;;25.48;14.10;;;21.00;58.20;;;;;;5013295;28;20069;-72
2023/03/04 04:27:24;;;;;;;22.60;14.25;;;21.00;58.10;;;;;;5013168;28;20103;-71
2023/03/04 04:29:50;;;;;;;26.63;14.63;;;20.90;58.10;;;;;;5012348;28;20759;-71
2023/03/04 04:32:16;;;;;;;26.20;14.98;;;21.00;58.10;;;;;;5012996;28;20279;-72
2023/03/04 04:34:42;;;;;;;30.27;14.93;;;21.00;58.10;;;;;;5013283;28;20046;-71
2023/03/04 04:37:08;;;;;;;23.95;14.65;;;20.90;58.10;;;;;;5013062;28;20129;-71
2023/03/04 04:39:34;;;;;;;28.55;14.82;;;20.80;58.00;;;;;;5017619;28;20480;-72
2023/03/04 04:42:00;;;;;;;23.10;14.02;;;20.80;57.90;;;;;;5032966;28;20055;-72
2023/03/04 04:44:26;;;;;;;26.13;14.68;;;20.80;57.90;;;;;;5032844;28;20029;-71
2023/03/04 04:46:52;;;;;;;31.33;15.70;;;20.80;58.10;;;;;;5032682;28;20142;-72
2023/03/04 04:49:18;;;;;;;27.98;14.93;;;20.70;58.20;;;;;;5030057;28;20030;-71
2023/03/04 04:51:44;;;;;;;31.83;15.98;;;20.70;58.20;;;;;;5012834;28;20509;-72
2023/03/04 04:54:12;;;;;;;34.58;17.23;;;20.70;58.20;;;;;;5027034;28;20085;-72
2023/03/04 04:56:38;;;;;;;38.08;20.00;;;20.70;58.20;;;;;;5012679;28;20037;-72
2023/03/04 04:59:06;;;;;;;35.95;18.77;;;20.60;58.10;;;;;;5011175;28;20036;-71
2023/03/04 05:01:32;;;;;;;38.38;19.27;;;20.70;58.30;;;;;;5032376;28;20052;-72
2023/03/04 05:03:58;;;;;;;34.78;17.67;;;20.60;58.10;;;;;;5032480;28;20038;-71
2023/03/04 05:06:24;;;;;;;32.50;18.35;;;20.60;58.10;;;;;;5032330;28;20037;-72
2023/03/04 05:08:51;;;;;;;30.75;17.45;;;20.60;58.20;;;;;;5032229;28;20030;-72
2023/03/04 05:11:18;;;;;;;31.67;17.92;;;20.60;58.00;;;;;;5031106;28;20489;-72
2023/03/04 05:13:44;;;;;;;35.95;18.38;;;20.60;57.90;;;;;;5032323;28;20037;-71
2023/03/04 05:16:10;;;;;;;32.25;18.52;;;20.60;57.80;;;;;;5032121;28;20035;-71
2023/03/04 05:18:36;;;;;;;29.92;17.75;;;20.60;57.60;;;;;;5032382;28;20037;-72
2023/03/04 05:21:03;;;;;;;32.92;16.98;;;20.50;57.80;;;;;;5029988;28;20531;-71
2023/03/04 05:23:32;;;;;;;33.97;19.25;;;20.70;58.00;;;;;;5032051;28;20034;-72
2023/03/04 05:25:59;;;;;;;31.90;17.67;;;20.80;57.80;;;;;;5031454;28;20092;-72
2023/03/04 05:28:25;;;;;;;34.60;18.02;;;20.70;57.80;;;;;;5032219;28;20045;-72
2023/03/04 05:30:51;;;;;;;27.25;15.98;;;20.70;57.70;;;;;;5018355;28;20125;-72
2023/03/04 05:33:18;;;;;;;28.80;15.35;;;20.60;57.60;;;;;;5012030;28;20124;-71
2023/03/04 05:35:44;;;;;;;26.17;15.00;;;20.80;57.60;;;;;;5012128;28;20037;-71
2023/03/04 05:38:14;;;;;;;28.85;15.77;;;20.70;57.60;;;;;;5016740;28;20453;-71
2023/03/04 05:40:41;;;;;;;27.40;15.88;;;20.60;57.40;;;;;;5030117;28;20038;-71
2023/03/04 05:43:07;;;;;;;26.98;14.20;;;20.60;57.50;;;;;;5031780;28;20057;-72
2023/03/04 05:45:33;;;;;;;23.92;15.65;;;20.70;57.60;;;;;;5031825;28;20071;-72
2023/03/04 05:47:59;;;;;;;27.33;15.80;;;20.60;57.40;;;;;;5031424;28;20073;-72
2023/03/04 05:50:26;;;;;;;24.38;14.38;;;20.60;57.50;;;;;;5022256;28;20080;-71
2023/03/04 05:52:52;;;;;;;29.13;15.30;;;20.50;57.50;;;;;;5011975;28;20044;-72
2023/03/04 05:55:18;;;;;;;27.60;14.55;;;20.60;57.50;;;;;;5011699;28;20034;-72
2023/03/04 05:57:44;;;;;;;29.95;15.38;;;20.50;57.40;;;;;;5042430;28;20046;-72
2023/03/04 06:00:14;;;;;;;28.58;15.82;;;20.40;57.40;;;;;;5011814;28;20100;-72
2023/03/04 06:02:42;;;;;;;28.40;15.07;;;20.50;57.50;;;;;;5011713;28;20113;-72
2023/03/04 06:05:09;;;;;;;27.98;14.57;;;20.30;57.40;;;;;;5011721;28;20038;-72
2023/03/04 06:07:35;;;;;;;25.73;14.57;;;20.50;57.60;;;;;;5011636;28;20061;-72
2023/03/04 06:10:02;;;;;;;24.98;15.02;;;20.40;57.40;;;;;;5011502;28;20064;-72
2023/03/04 06:12:29;;;;;;;27.20;16.08;;;20.40;57.20;;;;;;5011655;28;20034;-73
2023/03/04 06:14:55;;;;;;;26.00;14.32;;;20.60;57.20;;;;;;5011592;28;20359;-72
2023/03/04 06:17:21;;;;;;;27.02;14.40;;;20.50;57.00;;;;;;5011381;28;20034;-71
2023/03/04 06:19:47;;;;;;;30.40;16.55;;;20.50;56.90;;;;;;5023176;28;20063;-72
2023/03/04 06:22:13;;;;;;;34.10;15.38;;;20.60;56.70;;;;;;5030052;28;20037;-72
2023/03/04 06:24:38;;;;;;;25.27;14.80;;;20.60;56.50;;;;;;5031132;28;20393;-72
2023/03/04 06:27:05;;;;;;;28.08;16.17;;;20.80;56.30;;;;;;5031025;28;20041;-72
2023/03/04 06:29:31;;;;;;;30.75;15.27;;;20.80;56.10;;;;;;5030584;28;20485;-73
2023/03/04 06:31:57;;;;;;;28.27;15.50;;;20.80;56.20;;;;;;5029915;28;20424;-72
2023/03/04 06:34:23;;;;;;;31.40;18.35;;;20.80;56.20;;;;;;5030095;28;20028;-73
2023/03/04 06:36:49;;;;;;;26.85;16.27;;;20.80;54.40;;;;;;5029796;28;20103;-72
2023/03/04 06:39:16;;;;;;;22.65;13.73;;;20.90;50.20;;;;;;5029527;28;20060;-71
2023/03/04 06:41:41;;;;;;;20.63;12.68;;;20.80;47.20;;;;;;5029974;28;20120;-71
2023/03/04 06:44:07;;;;;;;24.10;14.00;;;20.90;48.10;;;;;;5029819;28;20446;-72
2023/03/04 06:46:34;;;;;;;25.42;12.23;;;21.00;46.10;;;;;;5029866;28;20036;-70
2023/03/04 06:49:00;;;;;;;23.20;13.85;;;21.00;46.10;;;;;;5027781;28;20040;-72
2023/03/04 06:51:27;;;;;;;24.98;12.95;;;21.00;47.00;;;;;;5026632;28;20469;-71
2023/03/04 06:53:53;;;;;;;23.83;14.63;;;21.20;46.70;;;;;;5032793;28;20041;-72
2023/03/04 06:56:19;;;;;;;20.65;12.63;;;21.20;47.30;;;;;;5033047;28;20044;-72
2023/03/04 06:58:45;;;;;;;23.15;16.17;;;21.10;46.30;;;;;;5032428;28;20021;-73
2023/03/04 07:01:19;;;;;;;29.48;19.70;;;21.20;45.20;;;;;;5026015;28;20061;-72
2023/03/04 07:03:46;;;;;;;30.58;19.45;;;21.20;47.80;;;;;;5030451;28;20034;-72
2023/03/04 07:06:14;;;;;;;34.00;16.25;;;21.50;47.50;;;;;;5026343;28;20401;-72
2023/03/04 07:08:41;;;;;;;30.80;16.50;;;21.50;60.40;;;;;;5031670;28;20029;-74
2023/03/04 07:11:08;;;;;;;25.30;14.95;;;21.70;60.20;;;;;;5046648;28;20180;-75
2023/03/04 07:13:37;;;;;;;25.15;11.23;;;21.80;60.20;;;;;;5027771;28;20412;-75
2023/03/04 07:16:08;;;;;;;19.65;10.95;;;21.90;62.80;;;;;;5033769;28;20037;-76
2023/03/04 07:18:34;;;;;;;32.38;16.65;;;21.90;58.00;;;;;;5031057;28;20037;-73
2023/03/04 07:21:00;;;;;;;20.40;11.60;;;22.10;56.60;;;;;;5031585;28;20108;-72
2023/03/04 07:23:26;;;;;;;20.65;10.30;;;22.10;54.60;;;;;;5033651;28;20064;-73
2023/03/04 07:25:52;;;;;;;27.10;11.35;;;22.10;53.80;;;;;;5032089;28;20505;-71
2023/03/04 07:28:18;;;;;;;24.98;13.80;;;22.10;53.30;;;;;;5031719;28;20036;-73
2023/03/04 07:30:44;;;;;;;28.70;13.55;;;22.30;53.90;;;;;;5033485;28;20042;-73
2023/03/04 07:33:11;;;;;;;27.05;11.52;;;22.30;55.10;;;;;;5033714;28;20470;-75
2023/03/04 07:35:37;;;;;;;23.00;12.65;;;22.30;55.10;;;;;;5032529;28;20123;-77
2023/03/04 07:38:03;;;;;;;23.75;11.98;;;22.20;55.50;;;;;;5032349;28;20529;-79
2023/03/04 07:40:29;;;;;;;24.40;13.73;;;22.40;55.10;;;;;;5027212;28;20033;-76
2023/03/04 07:42:55;;;;;;;21.38;11.65;;;22.30;54.90;;;;;;5032311;28;20662;-78
2023/03/04 07:45:22;;;;;;;23.77;12.52;;;22.30;55.10;;;;;;5033219;28;20075;-76
2023/03/04 07:47:49;;;;;;;22.30;12.77;;;22.30;55.30;;;;;;5033050;28;20377;-76
2023/03/04 07:50:17;;;;;;;22.50;12.25;;;22.40;55.60;;;;;;5015930;28;20417;-73
2023/03/04 07:52:47;;;;;;;19.98;10.20;;;22.30;55.90;;;;;;5013698;28;20030;-75
2023/03/04 07:55:14;;;;;;;17.55;11.98;;;22.30;56.10;;;;;;5013569;28;20666;-77
2023/03/04 07:57:42;;;;;;;20.60;12.73;;;22.30;56.20;;;;;;5023955;28;20473;-75
2023/03/04 08:00:10;;;;;;;27.23;13.35;;;22.30;56.60;;;;;;5017162;28;20037;-74
2023/03/04 08:02:39;;;;;;;21.92;11.23;;;22.40;57.10;;;;;;5013549;28;20037;-74
2023/03/04 08:05:06;;;;;;;24.33;11.73;;;22.40;57.40;;;;;;5027259;28;20029;-74
2023/03/04 08:07:33;;;;;;;20.70;12.65;;;22.40;58.70;;;;;;5019985;28;20072;-76
2023/03/04 08:09:59;;;;;;;20.40;12.65;;;22.50;59.40;;;;;;5012764;28;20084;-77
2023/03/04 08:12:26;;;;;;;20.45;12.63;;;22.50;58.70;;;;;;5034356;28;20176;-75
2023/03/04 08:14:52;;;;;;;21.45;11.48;;;22.50;59.00;;;;;;5030457;28;20041;-76
2023/03/04 08:17:19;;;;;;;24.83;12.90;;;22.40;59.00;;;;;;5028599;28;20036;-76
2023/03/04 08:19:45;;;;;;;23.70;12.82;;;22.60;58.90;;;;;;5032282;28;20034;-75
2023/03/04 08:22:11;;;;;;;20.70;11.63;;;22.50;59.20;;;;;;5042970;28;20044;-75
2023/03/04 08:24:37;;;;;;;20.67;11.98;;;22.60;59.40;;;;;;5047039;28;20040;-75
2023/03/04 08:27:03;;;;;;;21.65;11.18;;;22.50;59.60;;;;;;5052161;28;20061;-75
2023/03/04 08:29:30;;;;;;;21.95;12.45;;;22.60;59.20;;;;;;5038790;28;20037;-76
2023/03/04 08:31:56;;;;;;;19.15;12.65;;;22.60;58.90;;;;;;5047409;28;20441;-76
2023/03/04 08:34:25;;;;;;;22.08;12.60;;;22.60;57.80;;;;;;5024358;28;21359;-75
2023/03/04 08:36:51;;;;;;;23.67;10.07;;;22.60;58.60;;;;;;5034904;28;20040;-73
2023/03/04 08:39:18;;;;;;;16.13;10.85;;;22.60;58.80;;;;;;5046592;28;20066;-72
2023/03/04 08:41:44;;;;;;;20.13;11.68;;;22.70;58.70;;;;;;5048237;28;20118;-75
2023/03/04 08:44:11;;;;;;;21.65;11.55;;;22.50;57.80;;;;;;5040580;28;20032;-75
2023/03/04 08:46:38;;;;;;;23.35;12.55;;;22.70;58.50;;;;;;5032548;28;20045;-75
2023/03/04 08:49:05;;;;;;;21.60;11.35;;;22.50;58.10;;;;;;5030780;28;20038;-76
2023/03/04 08:51:34;;;;;;;21.00;10.73;;;22.60;58.20;;;;;;5048318;28;20025;-75
2023/03/04 08:54:01;;;;;;;19.33;12.07;;;22.50;58.50;;;;;;5042179;28;20111;-75
2023/03/04 08:56:27;;;;;;;15.73;9.93;;;22.60;58.20;;;;;;5042601;28;20496;-75
2023/03/04 08:58:53;;;;;;;22.63;12.00;;;22.50;58.50;;;;;;5049568;28;20035;-75
2023/03/04 09:01:19;;;;;;;18.73;10.65;;;22.50;58.50;;;;;;5038474;28;20017;-75
2023/03/04 09:03:45;;;;;;;20.20;11.10;;;22.50;58.60;;;;;;5031762;28;20075;-75
2023/03/04 09:06:15;;;;;;;21.55;11.35;;;22.50;58.50;;;;;;5030924;28;20038;-75
2023/03/04 09:08:41;;;;;;;19.77;10.27;;;22.40;58.50;;;;;;5052072;28;20033;-75
2023/03/04 09:11:08;;;;;;;19.55;11.15;;;22.50;58.40;;;;;;5046428;28;20124;-75
2023/03/04 09:13:34;;;;;;;17.38;10.05;;;22.60;58.20;;;;;;5052288;28;20052;-75
2023/03/04 09:16:01;;;;;;;17.38;9.68;;;22.60;58.10;;;;;;5033290;28;20037;-75
2023/03/04 09:18:28;;;;;;;17.33;10.70;;;22.60;58.10;;;;;;5042073;28;20043;-75
2023/03/04 09:20:54;;;;;;;20.48;11.02;;;22.60;57.90;;;;;;5039119;28;20404;-75
2023/03/04 09:23:20;;;;;;;19.70;10.73;;;22.70;57.80;;;;;;5042286;28;20478;-75
2023/03/04 09:25:48;;;;;;;17.65;10.73;;;22.70;57.90;;;;;;5031589;28;20036;-75
2023/03/04 09:28:15;;;;;;;13.70;9.50;;;22.70;57.90;;;;;;5051906;28;20037;-74
2023/03/04 09:30:42;;;;;;;19.17;10.57;;;22.60;57.70;;;;;;5037754;28;20044;-74
2023/03/04 09:33:08;;;;;;;13.73;9.02;;;22.80;57.80;;;;;;5014337;28;20805;-75
2023/03/04 09:35:34;;;;;;;19.35;11.18;;;22.70;57.70;;;;;;5021241;28;20405;-75
2023/03/04 09:38:00;;;;;;;18.15;11.13;;;22.70;57.60;;;;;;5031227;28;20029;-75
2023/03/04 09:40:41;;;;;;;16.70;10.48;;;22.80;57.60;;;;;;5032676;28;20044;-75
2023/03/04 09:43:23;;;;;;;18.63;9.73;;;22.80;57.60;;;;;;5048339;28;20037;-75
2023/03/04 09:45:54;;;;;;;16.65;9.57;;;22.80;57.60;;;;;;5039250;28;20055;-75
2023/03/04 09:48:23;;;;;;;13.40;8.30;;;22.80;57.50;;;;;;5050483;28;20370;-75
2023/03/04 09:51:19;;;;;;;16.42;10.02;;;22.80;57.50;;;;;;5045308;28;20039;-75
2023/03/04 09:54:15;;;;;;;15.48;8.80;;;22.60;57.30;;;;;;5039311;28;20037;-75
2023/03/04 09:56:41;;;;;;;14.82;9.00;;;22.70;57.40;;;;;;5042967;28;20610;-75
2023/03/04 09:59:10;;;;;;;17.45;8.60;;;22.80;57.30;;;;;;5051223;28;20041;-74
2023/03/04 10:01:45;;;;;;;14.02;7.85;;;22.70;57.30;;;;;;5045872;28;20037;-75
2023/03/04 10:04:29;;;;;;;10.38;7.20;;;22.60;57.20;;;;;;5028939;28;20405;-75
2023/03/04 10:06:55;;;;;;;11.43;7.05;;;22.60;57.20;;;;;;5037622;28;20049;-75
2023/03/04 10:09:45;;;;;;;12.43;8.25;;;22.80;57.30;;;;;;5040296;28;20470;-74
2023/03/04 10:12:24;;;;;;;15.45;8.40;;;22.60;57.20;;;;;;5038034;28;20543;-75
2023/03/04 10:14:50;;;;;;;11.63;7.32;;;22.50;57.30;;;;;;5018916;28;20129;-75
2023/03/04 10:17:23;;;;;;;10.93;7.35;;;22.60;57.30;;;;;;5039374;28;20116;-75
2023/03/04 10:20:08;;;;;;;;;;;22.60;57.20;;;;;;5049620;28;20087;-75
2023/03/04 10:22:47;;;;;;;13.35;7.35;;;22.60;57.20;;;;;;5044987;28;20380;-75
2023/03/04 10:25:18;;;;;;;14.27;7.43;;;22.70;57.30;;;;;;5042565;28;20036;-75
2023/03/04 10:27:51;;;;;;;12.10;6.75;;;22.70;57.30;;;;;;5039329;28;20095;-75
2023/03/04 10:30:55;;;;;;;14.82;7.78;;;22.60;57.20;;;;;;5029683;28;20084;-75
2023/03/04 10:33:24;;;;;;;11.88;6.72;;;22.70;57.30;;;;;;5014017;28;20033;-74
2023/03/04 10:36:11;;;;;;;13.02;7.82;;;22.80;57.20;;;;;;5029870;28;20025;-75
2023/03/04 10:38:40;;;;;;;15.85;8.10;;;22.70;57.20;;;;;;5030380;28;20025;-75
2023/03/04 10:41:25;;;;;;;14.27;8.50;;;22.80;57.10;;;;;;5045703;28;20041;-74
2023/03/04 10:44:15;;;;;;;13.88;6.20;;;22.70;57.10;;;;;;5049994;28;20041;-75
2023/03/04 10:46:45;;;;;;;12.25;7.35;;;22.70;57.10;;;;;;5024609;28;20041;-75
2023/03/04 10:49:13;;;;;;;15.63;8.48;;;22.80;57.00;;;;;;5050719;28;20025;-75
2023/03/04 10:51:46;;;;;;;11.90;7.72;;;22.80;57.10;;;;;;5046714;28;20107;-75
2023/03/04 10:54:30;;;;;;;9.32;6.90;;;22.60;57.00;;;;;;5045609;28;20179;-75
2023/03/04 10:57:05;;;;;;;17.13;8.43;;;22.60;57.00;;;;;;5027634;28;20041;-75
2023/03/04 10:59:54;;;;;;;10.35;7.03;;;22.60;57.00;;;;;;5050697;28;20033;-75
2023/03/04 11:02:35;;;;;;;11.93;7.40;;;22.60;56.90;;;;;;5046273;28;20036;-75
2023/03/04 11:05:22;;;;;;;13.63;7.97;;;22.60;56.90;;;;;;5043285;28;20029;-74
2023/03/04 11:07:49;;;;;;;16.45;7.47;;;22.60;57.00;;;;;;5038453;28;20119;-75
2023/03/04 11:10:39;;;;;;;18.77;8.00;;;22.70;57.10;;;;;;5048027;28;20404;-75
2023/03/04 11:13:19;;;;;;;12.32;8.48;;;22.60;57.10;;;;;;5033691;28;20101;-75
2023/03/04 11:16:03;;;;;;;15.70;8.18;;;22.70;57.20;;;;;;5047996;28;20080;-75
2023/03/04 11:18:40;;;;;;;11.55;6.30;;;22.60;57.20;;;;;;5036633;28;20086;-75
2023/03/04 11:21:12;;;;;;;13.85;7.25;;;22.60;57.20;;;;;;5050291;28;20055;-75
2023/03/04 11:23:48;;;;;;;14.93;8.23;;;22.60;57.20;;;;;;5044240;28;20037;-75
2023/03/04 11:26:23;;;;;;;12.90;7.53;;;22.60;57.20;;;;;;5050703;28;20049;-76
2023/03/04 11:29:00;;;;;;;15.38;7.10;;;22.70;57.30;;;;;;5030380;28;20033;-75
2023/03/04 11:31:33;;;;;;;14.63;6.88;;;22.70;57.30;;;;;;5049513;28;20619;-75
2023/03/04 11:34:13;;;;;;;11.38;6.22;;;22.70;57.30;;;;;;5045689;28;20033;-74
2023/03/04 11:37:07;;;;;;;14.55;6.82;;;22.70;57.30;;;;;;5028803;28;20496;-75
2023/03/04 11:39:40;;;;;;;9.52;6.10;;;22.60;57.20;;;;;;5043608;28;20051;-74
2023/03/04 11:42:25;;;;;;;6.95;4.50;;;22.60;57.20;;;;;;5034502;28;20087;-75
2023/03/04 11:44:51;;;;;;;10.45;6.07;;;22.60;57.10;;;;;;5043315;28;20089;-74
2023/03/04 11:47:36;;;;;;;10.90;6.07;;;22.70;57.30;;;;;;5036250;28;20041;-76
2023/03/04 11:50:28;;;;;;;10.50;7.22;;;22.60;57.20;;;;;;5043942;28;20037;-77
2023/03/04 11:53:01;;;;;;;18.17;6.40;;;22.60;53.70;;;;;;5048056;28;20040;-76
2023/03/04 11:55:45;;;;;;;11.57;6.17;;;22.80;56.10;;;;;;5042226;28;20179;-76
2023/03/04 11:58:43;;;;;;;10.63;6.00;;;23.00;52.90;;;;;;5053711;28;20421;-75
2023/03/04 12:01:18;;;;;;;12.73;7.72;;;23.10;62.10;;;;;;5038892;28;20061;-74
2023/03/04 12:03:53;;;;;;;9.70;6.25;;;23.30;51.90;;;;;;5065318;28;20043;-74
2023/03/04 12:06:22;;;;;;;30.38;9.55;;;23.40;52.70;;;;;;5029207;28;20034;-75
2023/03/04 12:09:29;;;;;;;13.45;7.45;;;23.60;56.00;;;;;;5038380;28;20033;-74
2023/03/04 12:12:23;;;;;;;14.73;8.48;;;23.80;52.10;;;;;;5016413;28;20566;-74
2023/03/04 12:14:57;;;;;;;12.30;7.50;;;23.80;43.80;;;;;;5023074;28;20030;-74
2023/03/04 12:17:43;;;;;;;10.13;6.57;;;23.60;39.80;;;;;;5019135;28;20075;-72
2023/03/04 12:20:24;;;;;;;12.95;6.82;;;23.60;40.20;;;;;;4922074;29;20416;-73
2023/03/04 12:22:53;;;;;;;10.02;6.38;;;23.40;39.60;;;;;;4933060;29;20051;-71
2023/03/04 12:25:42;;;;;;;12.10;7.00;;;23.20;39.40;;;;;;4927399;29;20055;-72
2023/03/04 12:28:22;;;;;;;10.73;6.85;;;23.20;39.70;;;;;;4932538;29;20082;-72
2023/03/04 12:31:10;;;;;;;14.45;7.82;;;23.10;39.60;;;;;;4918590;29;20047;-70
2023/03/04 12:34:03;;;;;;;14.45;7.18;;;23.10;39.20;;;;;;4933126;29;20087;-68
2023/03/04 12:36:53;;;;;;;10.10;6.20;;;23.00;38.50;;;;;;4932848;29;20036;-71
2023/03/04 12:39:45;;;;;;;10.88;6.40;;;22.90;37.90;;;;;;4917905;29;20039;-71
2023/03/04 12:42:29;;;;;;;13.43;5.47;;;22.90;38.30;;;;;;4928174;29;20434;-71
2023/03/04 12:45:29;;;;;;;12.00;6.88;;;22.90;39.30;;;;;;4911927;29;20136;-70